createdAt,value
2023-02-23T00:01:42.338Z,17.37
2023-02-23T00:04:11.512Z,19.50
2023-02-23T00:06:39.974Z,17.87
2023-02-23T00:09:13.805Z,19.10
2023-02-23T00:11:42.320Z,17.47
2023-02-23T00:14:10.370Z,17.90
2023-02-23T00:16:38.240Z,15.23
2023-02-23T00:19:08.110Z,17.63
2023-02-23T00:21:37.609Z,17.50
2023-02-23T00:24:08.307Z,18.87
2023-02-23T00:26:38.353Z,18.10
2023-02-23T00:29:09.253Z,19.47
2023-02-23T00:31:38.595Z,18.57
2023-02-23T00:34:07.544Z,19.63
2023-02-23T00:36:38.782Z,19.83
2023-02-23T00:39:18.502Z,23.37
2023-02-23T00:41:46.487Z,19.90
2023-02-23T00:44:15.313Z,21.13
2023-02-23T00:46:44.409Z,18.40
2023-02-23T00:49:13.651Z,21.33
2023-02-23T00:51:43.694Z,18.07
2023-02-23T00:54:14.158Z,19.53
2023-02-23T00:56:41.994Z,18.03
2023-02-23T00:59:09.799Z,21.87
2023-02-23T01:01:38.535Z,18.63
2023-02-23T01:04:07.317Z,21.17
2023-02-23T01:06:37.490Z,17.33
2023-02-23T01:09:10.031Z,17.20
2023-02-23T01:11:41.318Z,17.00
2023-02-23T01:14:10.916Z,17.37
2023-02-23T01:16:38.931Z,18.47
2023-02-23T01:19:07.890Z,17.77
2023-02-23T01:21:37.439Z,15.67
2023-02-23T01:24:06.171Z,19.03
2023-02-23T01:26:39.741Z,19.70
2023-02-23T01:29:09.434Z,18.13
2023-02-23T01:31:39.177Z,18.47
2023-02-23T01:34:07.575Z,17.53
2023-02-23T01:36:36.728Z,17.57
2023-02-23T01:39:07.617Z,20.47
2023-02-23T01:41:37.881Z,17.40
2023-02-23T01:44:07.537Z,20.20
2023-02-23T01:46:39.026Z,20.13
2023-02-23T01:49:09.939Z,18.00
2023-02-23T01:51:42.934Z,19.13
2023-02-23T01:54:15.879Z,18.67
2023-02-23T01:56:49.279Z,17.87
2023-02-23T01:59:18.841Z,16.93
2023-02-23T02:01:48.141Z,17.43
2023-02-23T02:04:19.514Z,16.50
2023-02-23T02:06:53.592Z,15.90
2023-02-23T02:09:27.430Z,18.23
2023-02-23T02:11:56.538Z,18.53
2023-02-23T02:14:28.377Z,17.60
2023-02-23T02:17:20.870Z,18.17
2023-02-23T02:20:26.500Z,20.27
2023-02-23T02:23:15.686Z,19.67
2023-02-23T02:25:57.771Z,19.13
2023-02-23T02:28:40.300Z,18.80
2023-02-23T02:31:47.237Z,18.00
2023-02-23T02:34:59.188Z,20.57
2023-02-23T02:37:47.654Z,18.87
2023-02-23T02:40:25.858Z,20.10
2023-02-23T02:43:08.208Z,18.13
2023-02-23T02:45:44.497Z,15.60
2023-02-23T02:48:19.312Z,15.53
2023-02-23T02:50:55.496Z,15.30
2023-02-23T02:53:31.704Z,16.80
2023-02-23T02:56:05.666Z,16.97
2023-02-23T02:58:38.957Z,17.73
2023-02-23T03:01:31.099Z,22.53
2023-02-23T03:04:18.385Z,30.97
2023-02-23T03:07:08.304Z,24.93
2023-02-23T03:10:01.279Z,22.23
2023-02-23T03:12:57.651Z,22.73
2023-02-23T03:15:58.568Z,17.40
2023-02-23T03:19:04.956Z,20.07
2023-02-23T03:21:54.581Z,18.47
2023-02-23T03:24:51.370Z,20.50
2023-02-23T03:27:42.847Z,16.53
2023-02-23T03:30:37.197Z,16.43
2023-02-23T03:33:29.874Z,18.20
2023-02-23T03:36:21.463Z,17.47
2023-02-23T03:39:15.917Z,18.93
2023-02-23T03:42:03.105Z,16.17
2023-02-23T03:44:53.015Z,17.70
2023-02-23T03:47:42.437Z,16.20
2023-02-23T03:50:36.772Z,16.27
2023-02-23T03:53:23.808Z,15.87
2023-02-23T03:56:13.383Z,17.13
2023-02-23T03:59:05.030Z,15.07
2023-02-23T04:01:52.981Z,15.33
2023-02-23T04:04:40.614Z,17.33
2023-02-23T04:07:27.706Z,16.50
2023-02-23T04:10:13.316Z,15.27
2023-02-23T04:13:05.672Z,16.67
2023-02-23T04:15:36.477Z,16.10
2023-02-23T04:18:07.587Z,17.53
2023-02-23T04:20:35.480Z,20.10
2023-02-23T04:23:03.248Z,17.83
2023-02-23T04:25:32.273Z,17.83
2023-02-23T04:28:00.117Z,17.23
2023-02-23T04:30:28.507Z,18.43
2023-02-23T04:32:56.712Z,20.57
2023-02-23T04:35:27.793Z,19.97
2023-02-23T04:37:55.674Z,20.37
2023-02-23T04:40:24.441Z,18.80
2023-02-23T04:42:52.269Z,18.53
2023-02-23T04:45:20.482Z,19.37
2023-02-23T04:47:48.260Z,18.07
2023-02-23T04:50:16.379Z,18.37
2023-02-23T04:52:45.589Z,20.93
2023-02-23T04:55:18.501Z,18.77
2023-02-23T04:57:46.491Z,17.70
2023-02-23T05:00:15.351Z,18.73
2023-02-23T05:02:43.282Z,19.03
2023-02-23T05:05:11.183Z,20.47
2023-02-23T05:07:39.200Z,21.33
2023-02-23T05:10:09.970Z,18.57
2023-02-23T05:12:37.874Z,19.17
2023-02-23T05:15:06.622Z,20.80
2023-02-23T05:17:34.357Z,17.87
2023-02-23T05:20:02.073Z,18.57
2023-02-23T05:22:29.769Z,18.97
2023-02-23T05:24:57.687Z,20.60
2023-02-23T05:27:26.796Z,18.87
2023-02-23T05:29:54.524Z,20.07
2023-02-23T05:32:22.372Z,23.60
2023-02-23T05:34:50.127Z,20.70
2023-02-23T05:37:18.025Z,22.13
2023-02-23T05:39:47.100Z,18.60
2023-02-23T05:42:14.859Z,19.90
2023-02-23T05:44:44.006Z,20.03
2023-02-23T05:47:11.817Z,19.00
2023-02-23T05:49:39.635Z,21.77
2023-02-23T05:52:07.460Z,21.43
2023-02-23T05:54:35.263Z,17.63
2023-02-23T05:57:03.051Z,21.20
2023-02-23T05:59:31.134Z,20.40
2023-02-23T06:02:00.270Z,24.57
2023-02-23T06:04:28.010Z,23.03
2023-02-23T06:06:55.718Z,21.23
2023-02-23T06:09:23.440Z,25.33
2023-02-23T06:11:51.472Z,23.50
2023-02-23T06:14:19.289Z,22.47
2023-02-23T06:16:48.749Z,25.77
2023-02-23T06:19:18.000Z,23.97
2023-02-23T06:21:46.685Z,23.63
2023-02-23T06:24:14.465Z,19.57
2023-02-23T06:26:44.378Z,23.90
2023-02-23T06:29:13.543Z,20.30
2023-02-23T06:31:41.364Z,20.77
2023-02-23T06:34:09.738Z,23.60
2023-02-23T06:36:38.904Z,21.27
2023-02-23T06:39:06.611Z,23.80
2023-02-23T06:41:35.659Z,21.30
2023-02-23T06:44:03.454Z,22.00
2023-02-23T06:46:33.142Z,22.00
2023-02-23T06:49:01.117Z,23.03
2023-02-23T06:51:28.858Z,21.80
2023-02-23T06:53:57.960Z,20.23
2023-02-23T06:56:25.743Z,20.20
2023-02-23T06:58:53.505Z,20.20
2023-02-23T07:01:21.555Z,20.30
2023-02-23T07:03:49.354Z,17.70
2023-02-23T07:06:18.125Z,18.17
2023-02-23T07:08:46.016Z,20.33
2023-02-23T07:11:18.203Z,22.43
2023-02-23T07:13:46.185Z,22.77
2023-02-23T07:16:14.842Z,20.93
2023-02-23T07:18:42.774Z,19.10
2023-02-23T07:21:10.538Z,20.53
2023-02-23T07:23:38.254Z,21.83
2023-02-23T07:26:06.334Z,21.43
2023-02-23T07:28:35.411Z,24.87
2023-02-23T07:31:03.347Z,20.53
2023-02-23T07:33:32.532Z,20.20
2023-02-23T07:36:00.472Z,19.43
2023-02-23T07:38:28.665Z,20.70
2023-02-23T07:40:56.547Z,21.80
2023-02-23T07:43:24.299Z,21.63
2023-02-23T07:45:53.526Z,26.63
2023-02-23T07:48:22.181Z,24.23
2023-02-23T07:50:49.940Z,20.97
2023-02-23T07:53:17.735Z,22.00
2023-02-23T07:55:45.713Z,21.20
2023-02-23T07:58:14.105Z,20.83
2023-02-23T08:00:41.977Z,20.97
2023-02-23T08:03:11.110Z,21.50
2023-02-23T08:05:40.068Z,21.73
2023-02-23T08:08:07.837Z,23.67
2023-02-23T08:10:35.596Z,26.23
2023-02-23T08:13:03.400Z,26.73
2023-02-23T08:15:31.445Z,24.77
2023-02-23T08:17:59.493Z,26.67
2023-02-23T08:20:28.694Z,27.13
2023-02-23T08:22:57.107Z,26.97
2023-02-23T08:25:25.187Z,29.93
2023-02-23T08:27:53.181Z,28.43
2023-02-23T08:30:22.307Z,29.90
2023-02-23T08:32:50.268Z,27.03
2023-02-23T08:35:20.056Z,28.13
2023-02-23T08:37:49.240Z,30.27
2023-02-23T08:40:18.309Z,29.00
2023-02-23T08:42:46.151Z,29.47
2023-02-23T08:45:13.931Z,29.63
2023-02-23T08:47:41.943Z,31.80
2023-02-23T08:50:11.846Z,32.43
2023-02-23T08:52:40.366Z,29.57
2023-02-23T08:55:11.664Z,30.43
2023-02-23T08:57:39.468Z,29.60
2023-02-23T09:00:14.060Z,31.93
2023-02-23T09:02:42.720Z,28.83
2023-02-23T09:05:11.281Z,28.97
2023-02-23T09:07:40.565Z,27.40
2023-02-23T09:10:13.221Z,26.70
2023-02-23T09:12:40.962Z,25.20
2023-02-23T09:15:09.932Z,27.30
2023-02-23T09:17:38.423Z,25.53
2023-02-23T09:20:07.257Z,27.37
2023-02-23T09:22:36.872Z,25.10
2023-02-23T09:25:05.698Z,24.33
2023-02-23T09:27:34.863Z,23.37
2023-02-23T09:30:02.702Z,22.80
2023-02-23T09:32:30.536Z,23.63
2023-02-23T09:34:58.377Z,24.93
2023-02-23T09:37:26.141Z,22.40
2023-02-23T09:39:53.977Z,21.50
2023-02-23T09:42:32.180Z,22.53
2023-02-23T09:45:13.225Z,23.77
2023-02-23T09:47:51.386Z,22.70
2023-02-23T09:50:23.557Z,24.00
2023-02-23T09:52:57.080Z,20.47
2023-02-23T09:55:27.922Z,21.60
2023-02-23T09:57:59.324Z,20.17
2023-02-23T10:00:28.633Z,21.20
2023-02-23T10:03:18.587Z,23.10
2023-02-23T10:05:50.532Z,20.40
2023-02-23T10:08:34.965Z,21.00
2023-02-23T10:11:11.304Z,19.10
2023-02-23T10:13:48.004Z,19.50
2023-02-23T10:16:25.017Z,20.30
2023-02-23T10:19:01.134Z,19.83
2023-02-23T10:21:35.237Z,20.40
2023-02-23T10:24:06.548Z,17.80
2023-02-23T10:26:43.969Z,18.93
2023-02-23T10:29:23.151Z,17.90
2023-02-23T10:31:57.145Z,19.77
2023-02-23T10:34:27.794Z,16.87
2023-02-23T10:37:00.472Z,17.20
2023-02-23T10:39:29.748Z,16.80
2023-02-23T10:41:59.472Z,16.07
2023-02-23T10:44:29.706Z,16.60
2023-02-23T10:47:02.628Z,14.73
2023-02-23T10:49:40.767Z,16.27
2023-02-23T10:52:13.549Z,15.97
2023-02-23T10:54:47.524Z,14.03
2023-02-23T10:57:23.250Z,14.90
2023-02-23T11:00:08.986Z,12.87
2023-02-23T11:02:38.228Z,13.97
2023-02-23T11:05:07.653Z,12.70
2023-02-23T11:07:35.525Z,11.90
2023-02-23T11:10:26.155Z,11.97
2023-02-23T11:12:54.147Z,11.93
2023-02-23T11:15:46.291Z,11.40
2023-02-23T11:18:23.602Z,13.03
2023-02-23T11:20:52.994Z,10.43
2023-02-23T11:23:24.575Z,10.73
2023-02-23T11:25:56.464Z,10.53
2023-02-23T11:28:30.181Z,10.03
2023-02-23T11:31:02.680Z,10.77
2023-02-23T11:33:35.948Z,10.07
2023-02-23T11:36:28.047Z,9.30
2023-02-23T11:39:05.401Z,8.87
2023-02-23T11:41:35.310Z,9.37
2023-02-23T11:44:06.193Z,10.07
2023-02-23T11:46:37.787Z,10.10
2023-02-23T11:49:15.708Z,10.80
2023-02-23T11:51:49.075Z,10.07
2023-02-23T11:54:22.729Z,10.17
2023-02-23T11:56:54.011Z,8.10
2023-02-23T11:59:28.371Z,10.53
2023-02-23T12:02:00.493Z,9.57
2023-02-23T12:04:33.494Z,10.47
2023-02-23T12:07:25.552Z,9.67
2023-02-23T12:10:02.223Z,9.17
2023-02-23T12:12:32.660Z,8.90
2023-02-23T12:15:09.422Z,11.47
2023-02-23T12:17:45.240Z,8.67
2023-02-23T12:20:19.450Z,8.17
2023-02-23T12:22:52.339Z,9.70
2023-02-23T12:25:26.914Z,9.97
2023-02-23T12:28:16.899Z,7.83
2023-02-23T12:30:51.924Z,7.47
2023-02-23T12:33:24.066Z,10.33
2023-02-23T12:35:58.097Z,9.93
2023-02-23T12:38:33.161Z,11.63
2023-02-23T12:41:06.027Z,9.97
2023-02-23T12:43:40.313Z,8.63
2023-02-23T12:46:13.514Z,7.80
2023-02-23T12:48:51.206Z,8.80
2023-02-23T12:51:27.420Z,10.33
2023-02-23T12:53:55.219Z,10.17
2023-02-23T12:56:33.918Z,8.97
2023-02-23T12:59:15.829Z,8.20
2023-02-23T13:01:51.111Z,8.10
2023-02-23T13:05:03.660Z,9.57
2023-02-23T13:07:41.887Z,7.43
2023-02-23T13:10:21.293Z,8.90
2023-02-23T13:13:05.242Z,7.97
2023-02-23T13:15:47.643Z,8.03
2023-02-23T13:18:25.317Z,6.40
2023-02-23T13:20:58.226Z,7.53
2023-02-23T13:23:35.570Z,7.30
2023-02-23T13:26:16.192Z,7.07
2023-02-23T13:28:52.038Z,7.30
2023-02-23T13:31:26.036Z,6.20
2023-02-23T13:33:56.154Z,7.93
2023-02-23T13:36:24.738Z,5.90
2023-02-23T13:39:19.353Z,6.73
2023-02-23T13:42:09.956Z,5.67
2023-02-23T13:44:44.869Z,5.73
2023-02-23T13:47:34.110Z,8.60
2023-02-23T13:50:08.698Z,15.30
2023-02-23T13:52:40.569Z,5.63
2023-02-23T13:55:48.754Z,13.03
2023-02-23T13:58:20.775Z,7.67
2023-02-23T14:00:55.732Z,6.10
2023-02-23T14:03:28.002Z,9.03
2023-02-23T14:06:00.561Z,6.77
2023-02-23T14:08:35.618Z,7.90
2023-02-23T14:11:05.993Z,6.60
2023-02-23T14:13:35.412Z,5.30
2023-02-23T14:16:13.620Z,5.37
2023-02-23T14:19:13.880Z,5.27
2023-02-23T14:21:50.821Z,5.43
2023-02-23T14:24:21.732Z,6.33
2023-02-23T14:27:38.521Z,5.93
2023-02-23T14:30:25.291Z,6.40
2023-02-23T14:32:53.788Z,5.93
2023-02-23T14:35:44.028Z,6.10
2023-02-23T14:38:45.753Z,5.93
2023-02-23T14:41:15.637Z,5.40
2023-02-23T14:43:46.617Z,5.17
2023-02-23T14:46:20.669Z,6.70
2023-02-23T14:48:59.644Z,6.67
2023-02-23T14:51:37.144Z,6.47
2023-02-23T14:54:15.508Z,6.13
2023-02-23T14:56:48.238Z,8.10
2023-02-23T14:59:22.001Z,4.57
2023-02-23T15:01:52.161Z,5.40
2023-02-23T15:04:22.577Z,5.60
2023-02-23T15:06:53.854Z,6.07
2023-02-23T15:09:30.534Z,8.70
2023-02-23T15:11:59.857Z,6.87
2023-02-23T15:14:38.813Z,7.50
2023-02-23T15:17:07.706Z,7.87
2023-02-23T15:19:39.259Z,7.23
2023-02-23T15:22:07.832Z,7.30
2023-02-23T15:24:43.155Z,6.27
2023-02-23T15:27:37.979Z,4.73
2023-02-23T15:30:23.283Z,5.63
2023-02-23T15:33:01.163Z,6.23
2023-02-23T15:35:30.701Z,6.87
2023-02-23T15:38:13.694Z,6.13
2023-02-23T15:40:46.777Z,5.97
2023-02-23T15:43:14.573Z,5.20
2023-02-23T15:45:48.696Z,6.47
2023-02-23T15:48:20.814Z,5.13
2023-02-23T15:50:51.043Z,4.90
2023-02-23T15:53:28.869Z,6.57
2023-02-23T15:56:03.025Z,6.63
2023-02-23T15:58:33.105Z,4.03
2023-02-23T16:01:27.086Z,5.23
2023-02-23T16:04:09.116Z,6.10
2023-02-23T16:06:39.618Z,4.60
2023-02-23T16:09:20.641Z,4.10
2023-02-23T16:11:52.256Z,5.23
2023-02-23T16:14:21.902Z,3.70
2023-02-23T16:17:10.953Z,4.80
2023-02-23T16:19:41.445Z,3.73
2023-02-23T16:22:20.681Z,3.93
2023-02-23T16:24:54.774Z,3.60
2023-02-23T16:27:22.599Z,3.80
2023-02-23T16:30:00.312Z,4.13
2023-02-23T16:32:37.900Z,4.07
2023-02-23T16:35:15.487Z,3.80
2023-02-23T16:38:02.109Z,3.80
2023-02-23T16:40:30.069Z,4.50
2023-02-23T16:42:59.407Z,4.70
2023-02-23T16:45:29.467Z,3.70
2023-02-23T16:48:03.128Z,3.80
2023-02-23T16:50:33.444Z,5.40
2023-02-23T16:53:02.124Z,3.90
2023-02-23T16:55:30.495Z,4.70
2023-02-23T16:58:01.282Z,4.50
2023-02-23T17:00:31.797Z,4.37
2023-02-23T17:03:01.474Z,4.30
2023-02-23T17:05:30.368Z,6.23
2023-02-23T17:07:59.028Z,6.27
2023-02-23T17:10:31.050Z,5.60
2023-02-23T17:13:02.396Z,6.13
2023-02-23T17:15:33.081Z,5.23
2023-02-23T17:18:02.325Z,5.07
2023-02-23T17:20:30.224Z,4.83
2023-02-23T17:22:59.468Z,6.40
2023-02-23T17:25:28.096Z,6.10
2023-02-23T17:27:56.875Z,5.27
2023-02-23T17:30:25.312Z,5.43
2023-02-23T17:32:55.658Z,5.73
2023-02-23T17:35:25.624Z,5.90
2023-02-23T17:37:54.267Z,5.37
2023-02-23T17:40:28.439Z,5.37
2023-02-23T17:42:57.373Z,5.27
2023-02-23T17:45:26.362Z,5.83
2023-02-23T17:47:54.266Z,4.80
2023-02-23T17:50:24.234Z,4.37
2023-02-23T17:52:52.526Z,5.67
2023-02-23T17:55:22.013Z,6.43
2023-02-23T17:57:49.913Z,6.33
2023-02-23T18:00:19.688Z,4.47
2023-02-23T18:02:47.443Z,6.37
2023-02-23T18:05:16.288Z,5.63
2023-02-23T18:07:48.265Z,5.77
2023-02-23T18:10:16.894Z,8.53
2023-02-23T18:12:44.759Z,14.63
2023-02-23T18:15:12.614Z,11.13
2023-02-23T18:17:40.408Z,7.23
2023-02-23T18:20:08.992Z,4.30
2023-02-23T18:22:36.732Z,5.80
2023-02-23T18:25:06.952Z,5.50
2023-02-23T18:27:34.833Z,5.77
2023-02-23T18:30:02.555Z,4.40
2023-02-23T18:32:31.435Z,7.00
2023-02-23T18:34:59.240Z,5.97
2023-02-23T18:37:28.789Z,4.97
2023-02-23T18:39:59.017Z,7.97
2023-02-23T18:42:28.586Z,5.53
2023-02-23T18:44:56.399Z,6.97
2023-02-23T18:47:24.259Z,6.03
2023-02-23T18:49:53.052Z,6.23
2023-02-23T18:52:20.808Z,5.70
2023-02-23T18:54:48.682Z,14.70
2023-02-23T18:57:16.390Z,13.07
2023-02-23T18:59:46.761Z,5.60
2023-02-23T19:02:14.496Z,8.50
2023-02-23T19:04:42.415Z,9.13
2023-02-23T19:07:10.235Z,8.73
2023-02-23T19:09:40.805Z,7.73
2023-02-23T19:12:08.867Z,5.07
2023-02-23T19:14:48.916Z,6.47
2023-02-23T19:17:18.898Z,6.30
2023-02-23T19:19:46.661Z,6.53
2023-02-23T19:22:14.405Z,6.93
2023-02-23T19:24:42.209Z,5.93
2023-02-23T19:27:10.974Z,6.63
2023-02-23T19:29:38.842Z,5.10
2023-02-23T19:32:07.022Z,4.97
2023-02-23T19:34:36.356Z,6.53
2023-02-23T19:37:04.251Z,4.90
2023-02-23T19:39:32.055Z,5.83
2023-02-23T19:41:59.786Z,5.00
2023-02-23T19:44:27.609Z,4.80
2023-02-23T19:46:55.443Z,5.17
2023-02-23T19:49:23.238Z,5.50
2023-02-23T19:51:52.903Z,5.10
2023-02-23T19:54:21.224Z,4.20
2023-02-23T19:56:49.825Z,5.87
2023-02-23T19:59:17.597Z,5.10
2023-02-23T20:01:45.842Z,3.93
2023-02-23T20:04:13.677Z,4.07
2023-02-23T20:06:44.623Z,5.43
2023-02-23T20:09:14.303Z,5.23
2023-02-23T20:11:42.528Z,3.70
2023-02-23T20:14:12.339Z,4.13
2023-02-23T20:16:40.233Z,4.37
2023-02-23T20:19:08.032Z,4.20
2023-02-23T20:21:36.696Z,5.47
2023-02-23T20:24:05.499Z,5.07
2023-02-23T20:26:37.245Z,4.77
2023-02-23T20:29:10.537Z,4.20
2023-02-23T20:31:41.878Z,4.93
2023-02-23T20:34:11.945Z,4.87
2023-02-23T20:36:40.116Z,4.87
2023-02-23T20:39:09.126Z,5.07
2023-02-23T20:41:38.336Z,5.40
2023-02-23T20:44:06.208Z,5.57
2023-02-23T20:46:33.992Z,6.50
2023-02-23T20:49:03.582Z,5.17
2023-02-23T20:51:31.363Z,8.17
2023-02-23T20:54:02.128Z,5.50
2023-02-23T20:56:32.118Z,7.47
2023-02-23T20:59:01.878Z,6.63
2023-02-23T21:01:30.242Z,6.50
2023-02-23T21:04:00.647Z,8.07
2023-02-23T21:06:30.583Z,7.70
2023-02-23T21:09:03.799Z,5.93
2023-02-23T21:11:33.291Z,7.23
2023-02-23T21:14:02.448Z,6.37
2023-02-23T21:16:32.642Z,6.27
2023-02-23T21:19:05.415Z,6.63
2023-02-23T21:21:38.700Z,6.17
2023-02-23T21:24:06.838Z,7.93
2023-02-23T21:26:34.730Z,6.83
2023-02-23T21:29:04.941Z,7.07
2023-02-23T21:31:32.958Z,8.60
2023-02-23T21:34:00.730Z,9.70
2023-02-23T21:36:28.601Z,6.23
2023-02-23T21:38:56.405Z,9.07
2023-02-23T21:41:24.150Z,6.50
2023-02-23T21:43:53.914Z,7.90
2023-02-23T21:46:23.745Z,9.33
2023-02-23T21:48:51.555Z,8.87
2023-02-23T21:51:19.815Z,7.87
2023-02-23T21:53:47.933Z,14.90
2023-02-23T21:56:18.572Z,14.47
2023-02-23T21:58:49.049Z,11.03
2023-02-23T22:01:19.795Z,12.03
2023-02-23T22:03:49.634Z,12.23
2023-02-23T22:06:20.499Z,13.43
2023-02-23T22:08:50.552Z,14.90
2023-02-23T22:11:20.720Z,15.23
2023-02-23T22:13:50.186Z,12.20
2023-02-23T22:16:20.199Z,15.17
2023-02-23T22:18:50.497Z,13.07
2023-02-23T22:21:19.116Z,10.10
2023-02-23T22:23:47.904Z,10.73
2023-02-23T22:26:15.706Z,15.33
2023-02-23T22:28:43.915Z,10.83
2023-02-23T22:31:14.789Z,8.40
2023-02-23T22:33:44.866Z,9.13
2023-02-23T22:36:18.243Z,12.60
2023-02-23T22:38:46.676Z,10.30
2023-02-23T22:41:14.760Z,10.90
2023-02-23T22:43:45.723Z,10.17
2023-02-23T22:46:13.998Z,9.63
2023-02-23T22:48:45.096Z,10.93
2023-02-23T22:51:15.921Z,9.43
2023-02-23T22:53:44.766Z,10.63
2023-02-23T22:56:13.851Z,10.17
2023-02-23T22:58:42.168Z,9.43
2023-02-23T23:01:12.241Z,9.67
2023-02-23T23:03:41.673Z,9.47
2023-02-23T23:06:12.828Z,8.33
2023-02-23T23:08:43.097Z,12.53
2023-02-23T23:11:13.028Z,9.20
2023-02-23T23:13:44.363Z,8.37
2023-02-23T23:16:25.575Z,9.83
2023-02-23T23:19:02.335Z,10.47
2023-02-23T23:21:31.932Z,11.10
2023-02-23T23:24:05.523Z,10.13
2023-02-23T23:26:35.448Z,11.60
2023-02-23T23:29:05.760Z,10.00
2023-02-23T23:31:35.399Z,10.60
2023-02-23T23:34:06.725Z,10.87
2023-02-23T23:36:38.085Z,9.07
2023-02-23T23:39:07.225Z,9.20
2023-02-23T23:41:35.584Z,12.03
2023-02-23T23:44:05.517Z,9.10
2023-02-23T23:46:35.482Z,8.67
2023-02-23T23:49:06.001Z,7.93
2023-02-23T23:51:38.970Z,8.77
2023-02-23T23:54:09.721Z,9.77
2023-02-23T23:56:38.305Z,9.43
2023-02-23T23:59:08.160Z,9.27
